Terminal Aerodrome Forecast
Issued by NWS Jackson, MS

Home | Current Version | Previous Version | Text Only | Print | Product List | Glossary On
Versions: 1 2 3 4 5 6 7 8 9 10 11 12 13
000
FTUS44 KJAN 301000 AAA
TAFGWO
TAF AMD
KGWO 301010Z 3010/3106 18005KT P6SM VCSH SCT050 OVC110
     FM301500 18006KT 4SM SHRA VCTS OVC025CB
     FM301900 19008KT 6SM -RA VCTS OVC035CB=

USA.gov is the U.S. government's official web portal to all federal, state and local government web resources and services.